sensor_id;sensor_type;location;lat;lon;timestamp;P1;durP1;ratioP1;P2;durP2;ratioP2
24761;SDS011;12865;51.934;10.330;2022-10-15T00:01:50;4.22;;;3.92;;
24761;SDS011;12865;51.934;10.330;2022-10-15T00:04:36;6.70;;;4.43;;
24761;SDS011;12865;51.934;10.330;2022-10-15T00:07:22;4.75;;;4.35;;
24761;SDS011;12865;51.934;10.330;2022-10-15T00:10:08;4.63;;;4.22;;
24761;SDS011;12865;51.934;10.330;2022-10-15T00:12:54;6.07;;;5.32;;
24761;SDS011;12865;51.934;10.330;2022-10-15T00:15:40;4.47;;;4.13;;
24761;SDS011;12865;51.934;10.330;2022-10-15T00:18:26;5.00;;;4.32;;
24761;SDS011;12865;51.934;10.330;2022-10-15T00:21:13;5.03;;;4.57;;
24761;SDS011;12865;51.934;10.330;2022-10-15T00:24:01;6.50;;;4.80;;
24761;SDS011;12865;51.934;10.330;2022-10-15T00:26:47;5.38;;;4.40;;
24761;SDS011;12865;51.934;10.330;2022-10-15T00:29:32;5.13;;;4.68;;
24761;SDS011;12865;51.934;10.330;2022-10-15T00:32:18;5.18;;;4.78;;
24761;SDS011;12865;51.934;10.330;2022-10-15T00:35:04;6.15;;;5.53;;
24761;SDS011;12865;51.934;10.330;2022-10-15T00:37:50;6.78;;;6.07;;
24761;SDS011;12865;51.934;10.330;2022-10-15T00:40:35;6.15;;;5.65;;
24761;SDS011;12865;51.934;10.330;2022-10-15T00:43:37;5.50;;;5.00;;
24761;SDS011;12865;51.934;10.330;2022-10-15T00:46:39;7.68;;;5.25;;
24761;SDS011;12865;51.934;10.330;2022-10-15T00:52:22;6.28;;;5.78;;
24761;SDS011;12865;51.934;10.330;2022-10-15T00:55:17;6.63;;;6.13;;
24761;SDS011;12865;51.934;10.330;2022-10-15T00:58:09;9.57;;;6.38;;
24761;SDS011;12865;51.934;10.330;2022-10-15T01:00:58;7.88;;;7.00;;
24761;SDS011;12865;51.934;10.330;2022-10-15T01:03:44;7.28;;;6.57;;
24761;SDS011;12865;51.934;10.330;2022-10-15T01:06:30;7.07;;;6.07;;
24761;SDS011;12865;51.934;10.330;2022-10-15T01:09:16;6.95;;;6.35;;
24761;SDS011;12865;51.934;10.330;2022-10-15T01:12:02;7.75;;;7.05;;
24761;SDS011;12865;51.934;10.330;2022-10-15T01:17:47;7.47;;;6.80;;
24761;SDS011;12865;51.934;10.330;2022-10-15T01:35:50;10.10;;;9.10;;
24761;SDS011;12865;51.934;10.330;2022-10-15T01:44:17;7.32;;;6.72;;
24761;SDS011;12865;51.934;10.330;2022-10-15T01:47:11;6.38;;;5.88;;
24761;SDS011;12865;51.934;10.330;2022-10-15T01:50:02;7.82;;;7.13;;
24761;SDS011;12865;51.934;10.330;2022-10-15T01:52:50;7.45;;;6.85;;
24761;SDS011;12865;51.934;10.330;2022-10-15T01:55:37;7.35;;;6.65;;
24761;SDS011;12865;51.934;10.330;2022-10-15T01:58:27;7.75;;;7.05;;
24761;SDS011;12865;51.934;10.330;2022-10-15T02:01:15;8.32;;;7.50;;
24761;SDS011;12865;51.934;10.330;2022-10-15T02:04:00;6.60;;;6.03;;
24761;SDS011;12865;51.934;10.330;2022-10-15T02:06:47;7.25;;;6.55;;
24761;SDS011;12865;51.934;10.330;2022-10-15T02:09:42;8.55;;;6.25;;
24761;SDS011;12865;51.934;10.330;2022-10-15T02:18:20;8.20;;;7.38;;
24761;SDS011;12865;51.934;10.330;2022-10-15T02:24:35;7.13;;;6.47;;
24761;SDS011;12865;51.934;10.330;2022-10-15T02:27:27;7.10;;;6.50;;
24761;SDS011;12865;51.934;10.330;2022-10-15T02:30:14;7.05;;;6.35;;
24761;SDS011;12865;51.934;10.330;2022-10-15T02:33:01;6.40;;;5.82;;
24761;SDS011;12865;51.934;10.330;2022-10-15T02:35:47;6.60;;;6.00;;
24761;SDS011;12865;51.934;10.330;2022-10-15T02:38:35;6.47;;;5.88;;
24761;SDS011;12865;51.934;10.330;2022-10-15T02:41:26;6.85;;;6.25;;
24761;SDS011;12865;51.934;10.330;2022-10-15T02:44:12;7.72;;;7.03;;
24761;SDS011;12865;51.934;10.330;2022-10-15T02:46:58;7.53;;;6.78;;
24761;SDS011;12865;51.934;10.330;2022-10-15T02:49:44;7.28;;;6.57;;
24761;SDS011;12865;51.934;10.330;2022-10-15T02:52:30;11.27;;;8.23;;
24761;SDS011;12865;51.934;10.330;2022-10-15T02:55:15;8.80;;;7.93;;
24761;SDS011;12865;51.934;10.330;2022-10-15T02:58:01;9.55;;;7.72;;
24761;SDS011;12865;51.934;10.330;2022-10-15T03:00:47;8.95;;;8.07;;
24761;SDS011;12865;51.934;10.330;2022-10-15T03:03:33;9.15;;;8.35;;
24761;SDS011;12865;51.934;10.330;2022-10-15T03:06:19;8.30;;;7.47;;
24761;SDS011;12865;51.934;10.330;2022-10-15T03:09:05;8.18;;;7.47;;
24761;SDS011;12865;51.934;10.330;2022-10-15T03:11:50;8.73;;;7.88;;
24761;SDS011;12865;51.934;10.330;2022-10-15T03:14:36;7.85;;;6.82;;
24761;SDS011;12865;51.934;10.330;2022-10-15T03:17:22;7.78;;;7.07;;
24761;SDS011;12865;51.934;10.330;2022-10-15T03:20:08;7.80;;;7.03;;
24761;SDS011;12865;51.934;10.330;2022-10-15T03:22:53;7.65;;;6.82;;
24761;SDS011;12865;51.934;10.330;2022-10-15T03:25:39;6.45;;;5.95;;
24761;SDS011;12865;51.934;10.330;2022-10-15T03:28:25;7.35;;;5.97;;
24761;SDS011;12865;51.934;10.330;2022-10-15T03:31:11;6.55;;;5.90;;
24761;SDS011;12865;51.934;10.330;2022-10-15T03:33:58;7.13;;;5.68;;
24761;SDS011;12865;51.934;10.330;2022-10-15T03:36:44;6.45;;;5.95;;
24761;SDS011;12865;51.934;10.330;2022-10-15T03:39:29;5.90;;;5.30;;
24761;SDS011;12865;51.934;10.330;2022-10-15T03:42:15;8.05;;;6.53;;
24761;SDS011;12865;51.934;10.330;2022-10-15T03:45:01;8.30;;;7.65;;
24761;SDS011;12865;51.934;10.330;2022-10-15T03:47:46;6.53;;;5.85;;
24761;SDS011;12865;51.934;10.330;2022-10-15T03:50:32;8.40;;;7.68;;
24761;SDS011;12865;51.934;10.330;2022-10-15T03:53:18;6.55;;;6.00;;
24761;SDS011;12865;51.934;10.330;2022-10-15T03:56:04;6.13;;;5.63;;
24761;SDS011;12865;51.934;10.330;2022-10-15T03:58:50;6.43;;;5.88;;
24761;SDS011;12865;51.934;10.330;2022-10-15T04:01:36;7.22;;;5.53;;
24761;SDS011;12865;51.934;10.330;2022-10-15T04:04:22;7.25;;;5.60;;
24761;SDS011;12865;51.934;10.330;2022-10-15T04:07:07;6.63;;;5.93;;
24761;SDS011;12865;51.934;10.330;2022-10-15T04:09:53;8.35;;;6.00;;
24761;SDS011;12865;51.934;10.330;2022-10-15T04:12:39;7.50;;;6.22;;
24761;SDS011;12865;51.934;10.330;2022-10-15T04:15:25;6.95;;;6.32;;
24761;SDS011;12865;51.934;10.330;2022-10-15T04:18:12;6.63;;;5.18;;
24761;SDS011;12865;51.934;10.330;2022-10-15T04:20:58;6.45;;;5.47;;
24761;SDS011;12865;51.934;10.330;2022-10-15T04:23:44;5.70;;;5.20;;
24761;SDS011;12865;51.934;10.330;2022-10-15T04:26:30;7.25;;;6.18;;
24761;SDS011;12865;51.934;10.330;2022-10-15T04:29:15;7.28;;;6.53;;
24761;SDS011;12865;51.934;10.330;2022-10-15T04:32:02;7.55;;;6.88;;
24761;SDS011;12865;51.934;10.330;2022-10-15T04:34:47;7.22;;;6.55;;
24761;SDS011;12865;51.934;10.330;2022-10-15T04:37:34;7.30;;;6.60;;
24761;SDS011;12865;51.934;10.330;2022-10-15T04:40:20;7.38;;;6.78;;
24761;SDS011;12865;51.934;10.330;2022-10-15T04:43:06;8.25;;;7.55;;
24761;SDS011;12865;51.934;10.330;2022-10-15T04:45:54;7.97;;;7.20;;
24761;SDS011;12865;51.934;10.330;2022-10-15T04:48:43;7.55;;;6.82;;
24761;SDS011;12865;51.934;10.330;2022-10-15T04:51:28;7.50;;;6.90;;
24761;SDS011;12865;51.934;10.330;2022-10-15T04:54:14;7.35;;;6.75;;
24761;SDS011;12865;51.934;10.330;2022-10-15T04:57:00;8.88;;;7.78;;
24761;SDS011;12865;51.934;10.330;2022-10-15T04:59:47;8.88;;;7.95;;
24761;SDS011;12865;51.934;10.330;2022-10-15T05:02:33;7.50;;;6.80;;
24761;SDS011;12865;51.934;10.330;2022-10-15T05:05:19;7.20;;;6.60;;
24761;SDS011;12865;51.934;10.330;2022-10-15T05:08:05;10.68;;;7.10;;
24761;SDS011;12865;51.934;10.330;2022-10-15T05:10:50;7.07;;;6.47;;
24761;SDS011;12865;51.934;10.330;2022-10-15T05:13:36;6.07;;;5.68;;
24761;SDS011;12865;51.934;10.330;2022-10-15T05:16:23;7.15;;;6.53;;
24761;SDS011;12865;51.934;10.330;2022-10-15T05:19:10;8.10;;;7.40;;
24761;SDS011;12865;51.934;10.330;2022-10-15T05:21:56;8.43;;;7.72;;
24761;SDS011;12865;51.934;10.330;2022-10-15T05:24:41;8.45;;;7.65;;
24761;SDS011;12865;51.934;10.330;2022-10-15T05:27:27;9.48;;;8.23;;
24761;SDS011;12865;51.934;10.330;2022-10-15T05:30:13;8.43;;;7.63;;
24761;SDS011;12865;51.934;10.330;2022-10-15T05:32:58;10.18;;;7.45;;
24761;SDS011;12865;51.934;10.330;2022-10-15T05:35:44;8.98;;;8.18;;
24761;SDS011;12865;51.934;10.330;2022-10-15T05:38:29;8.35;;;7.55;;
24761;SDS011;12865;51.934;10.330;2022-10-15T05:41:15;10.48;;;9.48;;
24761;SDS011;12865;51.934;10.330;2022-10-15T05:44:01;10.00;;;9.00;;
24761;SDS011;12865;51.934;10.330;2022-10-15T05:46:47;10.35;;;9.35;;
24761;SDS011;12865;51.934;10.330;2022-10-15T05:49:33;10.07;;;9.07;;
24761;SDS011;12865;51.934;10.330;2022-10-15T05:52:18;9.65;;;8.75;;
24761;SDS011;12865;51.934;10.330;2022-10-15T05:55:04;9.70;;;8.77;;
24761;SDS011;12865;51.934;10.330;2022-10-15T05:57:50;7.28;;;6.68;;
24761;SDS011;12865;51.934;10.330;2022-10-15T06:00:36;7.57;;;6.88;;
24761;SDS011;12865;51.934;10.330;2022-10-15T06:03:24;9.32;;;8.48;;
24761;SDS011;12865;51.934;10.330;2022-10-15T06:06:16;8.00;;;7.40;;
24761;SDS011;12865;51.934;10.330;2022-10-15T06:09:04;9.80;;;8.82;;
24761;SDS011;12865;51.934;10.330;2022-10-15T06:11:50;8.45;;;6.95;;
24761;SDS011;12865;51.934;10.330;2022-10-15T06:14:35;8.07;;;7.28;;
24761;SDS011;12865;51.934;10.330;2022-10-15T06:17:21;8.95;;;8.05;;
24761;SDS011;12865;51.934;10.330;2022-10-15T06:20:07;7.63;;;6.93;;
24761;SDS011;12865;51.934;10.330;2022-10-15T06:22:56;8.68;;;7.97;;
24761;SDS011;12865;51.934;10.330;2022-10-15T06:25:43;10.40;;;9.43;;
24761;SDS011;12865;51.934;10.330;2022-10-15T06:28:29;11.43;;;10.18;;
24761;SDS011;12865;51.934;10.330;2022-10-15T06:31:15;11.02;;;10.02;;
24761;SDS011;12865;51.934;10.330;2022-10-15T06:34:00;11.50;;;10.40;;
24761;SDS011;12865;51.934;10.330;2022-10-15T06:36:46;12.57;;;11.40;;
24761;SDS011;12865;51.934;10.330;2022-10-15T06:39:32;12.82;;;11.55;;
24761;SDS011;12865;51.934;10.330;2022-10-15T06:42:17;13.93;;;12.48;;
24761;SDS011;12865;51.934;10.330;2022-10-15T06:45:04;12.77;;;11.57;;
24761;SDS011;12865;51.934;10.330;2022-10-15T06:47:51;12.57;;;11.43;;
24761;SDS011;12865;51.934;10.330;2022-10-15T06:50:37;13.30;;;12.00;;
24761;SDS011;12865;51.934;10.330;2022-10-15T06:53:23;10.18;;;9.27;;
24761;SDS011;12865;51.934;10.330;2022-10-15T06:56:09;11.57;;;10.48;;
24761;SDS011;12865;51.934;10.330;2022-10-15T06:58:54;12.45;;;11.23;;
24761;SDS011;12865;51.934;10.330;2022-10-15T07:01:40;13.40;;;12.15;;
24761;SDS011;12865;51.934;10.330;2022-10-15T07:04:26;13.27;;;11.93;;
24761;SDS011;12865;51.934;10.330;2022-10-15T07:07:11;12.70;;;11.40;;
24761;SDS011;12865;51.934;10.330;2022-10-15T07:09:57;11.82;;;10.65;;
24761;SDS011;12865;51.934;10.330;2022-10-15T07:12:43;10.88;;;9.77;;
24761;SDS011;12865;51.934;10.330;2022-10-15T07:15:29;10.02;;;9.00;;
24761;SDS011;12865;51.934;10.330;2022-10-15T07:18:14;10.60;;;9.10;;
24761;SDS011;12865;51.934;10.330;2022-10-15T07:21:00;11.55;;;9.85;;
24761;SDS011;12865;51.934;10.330;2022-10-15T07:23:47;10.70;;;9.70;;
24761;SDS011;12865;51.934;10.330;2022-10-15T07:26:33;10.13;;;9.07;;
24761;SDS011;12865;51.934;10.330;2022-10-15T07:29:18;11.20;;;10.20;;
24761;SDS011;12865;51.934;10.330;2022-10-15T07:32:04;11.52;;;10.45;;
24761;SDS011;12865;51.934;10.330;2022-10-15T07:34:50;11.60;;;10.27;;
24761;SDS011;12865;51.934;10.330;2022-10-15T07:37:35;11.48;;;10.27;;
24761;SDS011;12865;51.934;10.330;2022-10-15T07:40:21;11.88;;;10.73;;
24761;SDS011;12865;51.934;10.330;2022-10-15T07:43:07;12.15;;;11.10;;
24761;SDS011;12865;51.934;10.330;2022-10-15T07:45:53;9.85;;;8.98;;
24761;SDS011;12865;51.934;10.330;2022-10-15T07:48:39;8.45;;;7.63;;
24761;SDS011;12865;51.934;10.330;2022-10-15T07:51:24;8.20;;;7.43;;
24761;SDS011;12865;51.934;10.330;2022-10-15T07:54:10;8.02;;;7.30;;
24761;SDS011;12865;51.934;10.330;2022-10-15T07:56:56;9.45;;;8.55;;
24761;SDS011;12865;51.934;10.330;2022-10-15T07:59:41;9.13;;;8.35;;
24761;SDS011;12865;51.934;10.330;2022-10-15T08:02:27;7.68;;;6.97;;
24761;SDS011;12865;51.934;10.330;2022-10-15T08:05:13;11.70;;;7.88;;
24761;SDS011;12865;51.934;10.330;2022-10-15T08:07:59;7.15;;;6.55;;
24761;SDS011;12865;51.934;10.330;2022-10-15T08:10:45;9.10;;;6.15;;
24761;SDS011;12865;51.934;10.330;2022-10-15T08:13:31;6.53;;;5.93;;
24761;SDS011;12865;51.934;10.330;2022-10-15T08:16:17;7.13;;;6.18;;
24761;SDS011;12865;51.934;10.330;2022-10-15T08:19:04;7.22;;;6.55;;
24761;SDS011;12865;51.934;10.330;2022-10-15T08:21:50;6.07;;;5.57;;
24761;SDS011;12865;51.934;10.330;2022-10-15T08:24:35;7.43;;;6.72;;
24761;SDS011;12865;51.934;10.330;2022-10-15T08:27:21;7.10;;;6.45;;
24761;SDS011;12865;51.934;10.330;2022-10-15T08:30:07;7.38;;;6.60;;
24761;SDS011;12865;51.934;10.330;2022-10-15T08:32:53;8.43;;;7.38;;
24761;SDS011;12865;51.934;10.330;2022-10-15T08:35:39;8.80;;;7.43;;
24761;SDS011;12865;51.934;10.330;2022-10-15T08:38:28;8.52;;;7.72;;
24761;SDS011;12865;51.934;10.330;2022-10-15T08:41:37;8.90;;;8.13;;
24761;SDS011;12865;51.934;10.330;2022-10-15T08:47:20;9.02;;;8.13;;
24761;SDS011;12865;51.934;10.330;2022-10-15T08:50:25;8.90;;;8.10;;
24761;SDS011;12865;51.934;10.330;2022-10-15T08:53:12;9.43;;;8.57;;
24761;SDS011;12865;51.934;10.330;2022-10-15T08:56:04;9.05;;;8.15;;
24761;SDS011;12865;51.934;10.330;2022-10-15T08:59:00;9.38;;;8.48;;
24761;SDS011;12865;51.934;10.330;2022-10-15T09:07:52;8.85;;;8.07;;
24761;SDS011;12865;51.934;10.330;2022-10-15T09:10:50;10.02;;;8.55;;
24761;SDS011;12865;51.934;10.330;2022-10-15T09:13:40;9.25;;;8.35;;
24761;SDS011;12865;51.934;10.330;2022-10-15T09:16:30;8.65;;;7.85;;
24761;SDS011;12865;51.934;10.330;2022-10-15T09:19:20;9.80;;;7.82;;
24761;SDS011;12865;51.934;10.330;2022-10-15T09:22:09;8.40;;;7.55;;
24761;SDS011;12865;51.934;10.330;2022-10-15T09:24:59;7.15;;;6.55;;
24761;SDS011;12865;51.934;10.330;2022-10-15T09:30:50;5.93;;;5.38;;
24761;SDS011;12865;51.934;10.330;2022-10-15T09:33:39;4.55;;;4.15;;
24761;SDS011;12865;51.934;10.330;2022-10-15T09:39:46;3.80;;;3.50;;
24761;SDS011;12865;51.934;10.330;2022-10-15T09:42:37;4.25;;;3.72;;
24761;SDS011;12865;51.934;10.330;2022-10-15T09:45:26;3.72;;;3.42;;
24761;SDS011;12865;51.934;10.330;2022-10-15T09:48:16;3.70;;;3.42;;
24761;SDS011;12865;51.934;10.330;2022-10-15T09:51:06;3.90;;;3.60;;
24761;SDS011;12865;51.934;10.330;2022-10-15T09:54:02;5.07;;;4.57;;
24761;SDS011;12865;51.934;10.330;2022-10-15T09:56:56;3.67;;;3.38;;
24761;SDS011;12865;51.934;10.330;2022-10-15T09:59:55;4.80;;;3.33;;
24761;SDS011;12865;51.934;10.330;2022-10-15T10:03:05;4.00;;;3.65;;
24761;SDS011;12865;51.934;10.330;2022-10-15T10:05:58;3.85;;;3.65;;
24761;SDS011;12865;51.934;10.330;2022-10-15T10:08:55;3.83;;;3.53;;
24761;SDS011;12865;51.934;10.330;2022-10-15T10:11:51;3.23;;;2.80;;
24761;SDS011;12865;51.934;10.330;2022-10-15T10:14:40;3.13;;;2.88;;
24761;SDS011;12865;51.934;10.330;2022-10-15T10:17:31;2.55;;;2.38;;
24761;SDS011;12865;51.934;10.330;2022-10-15T10:20:17;3.25;;;3.05;;
24761;SDS011;12865;51.934;10.330;2022-10-15T10:23:23;3.03;;;2.83;;
24761;SDS011;12865;51.934;10.330;2022-10-15T10:26:19;3.10;;;2.80;;
24761;SDS011;12865;51.934;10.330;2022-10-15T10:29:05;2.95;;;2.75;;
24761;SDS011;12865;51.934;10.330;2022-10-15T10:31:50;3.70;;;2.60;;
24761;SDS011;12865;51.934;10.330;2022-10-15T10:34:37;3.70;;;2.50;;
24761;SDS011;12865;51.934;10.330;2022-10-15T10:39:51;2.47;;;2.28;;
24761;SDS011;12865;51.934;10.330;2022-10-15T10:42:41;2.38;;;2.00;;
24761;SDS011;12865;51.934;10.330;2022-10-15T10:45:27;1.90;;;1.80;;
24761;SDS011;12865;51.934;10.330;2022-10-15T10:48:18;2.10;;;2.00;;
24761;SDS011;12865;51.934;10.330;2022-10-15T10:51:18;1.60;;;1.50;;
24761;SDS011;12865;51.934;10.330;2022-10-15T10:54:04;1.67;;;1.58;;
24761;SDS011;12865;51.934;10.330;2022-10-15T10:56:58;1.95;;;1.58;;
24761;SDS011;12865;51.934;10.330;2022-10-15T10:59:52;1.40;;;1.30;;
24761;SDS011;12865;51.934;10.330;2022-10-15T11:02:39;1.50;;;1.40;;
24761;SDS011;12865;51.934;10.330;2022-10-15T11:05:28;0.95;;;0.95;;
24761;SDS011;12865;51.934;10.330;2022-10-15T11:08:33;0.90;;;0.90;;
24761;SDS011;12865;51.934;10.330;2022-10-15T11:14:52;1.75;;;1.65;;
24761;SDS011;12865;51.934;10.330;2022-10-15T11:21:56;7.57;;;5.05;;
24761;SDS011;12865;51.934;10.330;2022-10-15T11:27:31;6.55;;;5.28;;
24761;SDS011;12865;51.934;10.330;2022-10-15T11:30:46;8.90;;;6.20;;
24761;SDS011;12865;51.934;10.330;2022-10-15T11:42:41;1.30;;;1.30;;
24761;SDS011;12865;51.934;10.330;2022-10-15T11:45:43;1.75;;;1.65;;
24761;SDS011;12865;51.934;10.330;2022-10-15T11:55:13;2.65;;;2.45;;
24761;SDS011;12865;51.934;10.330;2022-10-15T11:58:08;2.97;;;2.67;;
24761;SDS011;12865;51.934;10.330;2022-10-15T12:01:01;2.75;;;2.55;;
24761;SDS011;12865;51.934;10.330;2022-10-15T12:03:57;3.17;;;2.88;;
24761;SDS011;12865;51.934;10.330;2022-10-15T12:06:48;3.03;;;2.80;;
24761;SDS011;12865;51.934;10.330;2022-10-15T12:09:38;3.00;;;2.80;;
24761;SDS011;12865;51.934;10.330;2022-10-15T12:12:30;3.08;;;2.65;;
24761;SDS011;12865;51.934;10.330;2022-10-15T12:18:53;2.70;;;2.50;;
24761;SDS011;12865;51.934;10.330;2022-10-15T12:22:05;2.67;;;2.47;;
24761;SDS011;12865;51.934;10.330;2022-10-15T12:24:55;2.35;;;2.00;;
24761;SDS011;12865;51.934;10.330;2022-10-15T12:27:41;2.20;;;2.00;;
24761;SDS011;12865;51.934;10.330;2022-10-15T12:30:28;2.28;;;2.00;;
24761;SDS011;12865;51.934;10.330;2022-10-15T12:33:44;2.47;;;2.28;;
24761;SDS011;12865;51.934;10.330;2022-10-15T12:36:44;2.65;;;2.10;;
24761;SDS011;12865;51.934;10.330;2022-10-15T12:39:43;3.23;;;2.10;;
24761;SDS011;12865;51.934;10.330;2022-10-15T12:42:34;2.65;;;1.83;;
24761;SDS011;12865;51.934;10.330;2022-10-15T12:45:22;3.17;;;2.05;;
24761;SDS011;12865;51.934;10.330;2022-10-15T13:03:21;1.40;;;1.30;;
24761;SDS011;12865;51.934;10.330;2022-10-15T13:06:21;1.30;;;0.90;;
24761;SDS011;12865;51.934;10.330;2022-10-15T13:11:56;0.80;;;0.80;;
24761;SDS011;12865;51.934;10.330;2022-10-15T13:14:46;1.00;;;1.00;;
24761;SDS011;12865;51.934;10.330;2022-10-15T13:17:39;1.45;;;0.90;;
24761;SDS011;12865;51.934;10.330;2022-10-15T13:20:29;1.80;;;0.93;;
24761;SDS011;12865;51.934;10.330;2022-10-15T13:23:23;0.85;;;0.85;;
24761;SDS011;12865;51.934;10.330;2022-10-15T13:29:04;1.85;;;0.80;;
24761;SDS011;12865;51.934;10.330;2022-10-15T13:31:53;0.80;;;0.80;;
24761;SDS011;12865;51.934;10.330;2022-10-15T13:34:41;0.80;;;0.80;;
24761;SDS011;12865;51.934;10.330;2022-10-15T13:37:28;1.00;;;0.65;;
24761;SDS011;12865;51.934;10.330;2022-10-15T13:40:21;0.70;;;0.70;;
24761;SDS011;12865;51.934;10.330;2022-10-15T13:43:16;1.20;;;0.50;;
24761;SDS011;12865;51.934;10.330;2022-10-15T13:46:10;0.57;;;0.57;;
24761;SDS011;12865;51.934;10.330;2022-10-15T13:49:00;0.47;;;0.47;;
24761;SDS011;12865;51.934;10.330;2022-10-15T13:51:48;0.60;;;0.60;;
24761;SDS011;12865;51.934;10.330;2022-10-15T13:54:36;0.70;;;0.70;;
24761;SDS011;12865;51.934;10.330;2022-10-15T13:57:23;0.70;;;0.70;;
24761;SDS011;12865;51.934;10.330;2022-10-15T14:00:18;0.70;;;0.70;;
24761;SDS011;12865;51.934;10.330;2022-10-15T14:03:12;0.57;;;0.57;;
24761;SDS011;12865;51.934;10.330;2022-10-15T14:09:12;0.52;;;0.52;;
24761;SDS011;12865;51.934;10.330;2022-10-15T14:12:06;0.90;;;0.70;;
24761;SDS011;12865;51.934;10.330;2022-10-15T14:14:52;0.57;;;0.50;;
24761;SDS011;12865;51.934;10.330;2022-10-15T14:17:38;0.50;;;0.50;;
24761;SDS011;12865;51.934;10.330;2022-10-15T14:20:24;0.88;;;0.60;;
24761;SDS011;12865;51.934;10.330;2022-10-15T14:23:19;0.98;;;0.95;;
24761;SDS011;12865;51.934;10.330;2022-10-15T14:26:07;2.42;;;0.73;;
24761;SDS011;12865;51.934;10.330;2022-10-15T14:28:55;0.88;;;0.88;;
24761;SDS011;12865;51.934;10.330;2022-10-15T14:31:45;1.45;;;0.80;;
24761;SDS011;12865;51.934;10.330;2022-10-15T14:40:21;2.42;;;0.73;;
24761;SDS011;12865;51.934;10.330;2022-10-15T14:43:14;3.20;;;0.50;;
24761;SDS011;12865;51.934;10.330;2022-10-15T14:46:05;0.85;;;0.45;;
24761;SDS011;12865;51.934;10.330;2022-10-15T14:48:56;1.15;;;0.60;;
24761;SDS011;12865;51.934;10.330;2022-10-15T14:51:41;0.50;;;0.50;;
24761;SDS011;12865;51.934;10.330;2022-10-15T14:54:32;0.80;;;0.60;;
24761;SDS011;12865;51.934;10.330;2022-10-15T14:57:23;0.60;;;0.60;;
24761;SDS011;12865;51.934;10.330;2022-10-15T15:03:03;0.40;;;0.40;;
24761;SDS011;12865;51.934;10.330;2022-10-15T15:05:51;4.15;;;0.80;;
24761;SDS011;12865;51.934;10.330;2022-10-15T15:08:38;0.38;;;0.38;;
24761;SDS011;12865;51.934;10.330;2022-10-15T15:11:24;0.90;;;0.40;;
24761;SDS011;12865;51.934;10.330;2022-10-15T15:14:21;1.10;;;0.50;;
24761;SDS011;12865;51.934;10.330;2022-10-15T15:17:14;0.95;;;0.50;;
24761;SDS011;12865;51.934;10.330;2022-10-15T15:20:01;2.10;;;0.70;;
24761;SDS011;12865;51.934;10.330;2022-10-15T15:22:48;0.85;;;0.82;;
24761;SDS011;12865;51.934;10.330;2022-10-15T15:25:36;1.33;;;0.60;;
24761;SDS011;12865;51.934;10.330;2022-10-15T15:28:22;1.05;;;0.70;;
24761;SDS011;12865;51.934;10.330;2022-10-15T15:31:15;0.45;;;0.45;;
24761;SDS011;12865;51.934;10.330;2022-10-15T15:34:02;1.60;;;0.50;;
24761;SDS011;12865;51.934;10.330;2022-10-15T15:36:48;1.02;;;0.60;;
24761;SDS011;12865;51.934;10.330;2022-10-15T15:39:34;1.80;;;0.60;;
24761;SDS011;12865;51.934;10.330;2022-10-15T15:42:20;0.43;;;0.43;;
24761;SDS011;12865;51.934;10.330;2022-10-15T15:45:15;0.40;;;0.40;;
24761;SDS011;12865;51.934;10.330;2022-10-15T15:48:11;0.50;;;0.50;;
24761;SDS011;12865;51.934;10.330;2022-10-15T15:51:00;0.75;;;0.55;;
24761;SDS011;12865;51.934;10.330;2022-10-15T15:53:48;0.95;;;0.60;;
24761;SDS011;12865;51.934;10.330;2022-10-15T15:56:33;0.70;;;0.70;;
24761;SDS011;12865;51.934;10.330;2022-10-15T15:59:19;0.50;;;0.50;;
24761;SDS011;12865;51.934;10.330;2022-10-15T16:02:05;2.03;;;0.70;;
24761;SDS011;12865;51.934;10.330;2022-10-15T16:04:51;3.10;;;0.63;;
24761;SDS011;12865;51.934;10.330;2022-10-15T16:07:36;0.60;;;0.60;;
24761;SDS011;12865;51.934;10.330;2022-10-15T16:10:22;0.70;;;0.70;;
24761;SDS011;12865;51.934;10.330;2022-10-15T16:13:08;1.17;;;0.88;;
24761;SDS011;12865;51.934;10.330;2022-10-15T16:15:54;3.38;;;1.00;;
24761;SDS011;12865;51.934;10.330;2022-10-15T16:18:39;0.80;;;0.80;;
24761;SDS011;12865;51.934;10.330;2022-10-15T16:21:26;1.20;;;0.93;;
24761;SDS011;12865;51.934;10.330;2022-10-15T16:24:12;0.70;;;0.70;;
24761;SDS011;12865;51.934;10.330;2022-10-15T16:26:58;2.70;;;1.10;;
24761;SDS011;12865;51.934;10.330;2022-10-15T16:29:43;0.80;;;0.80;;
24761;SDS011;12865;51.934;10.330;2022-10-15T16:32:29;0.95;;;0.95;;
24761;SDS011;12865;51.934;10.330;2022-10-15T16:35:15;0.82;;;0.82;;
24761;SDS011;12865;51.934;10.330;2022-10-15T16:38:00;2.28;;;0.90;;
24761;SDS011;12865;51.934;10.330;2022-10-15T16:40:46;1.25;;;0.93;;
24761;SDS011;12865;51.934;10.330;2022-10-15T16:43:32;1.27;;;1.13;;
24761;SDS011;12865;51.934;10.330;2022-10-15T16:46:19;3.17;;;0.93;;
24761;SDS011;12865;51.934;10.330;2022-10-15T16:49:05;2.20;;;1.27;;
24761;SDS011;12865;51.934;10.330;2022-10-15T16:51:51;1.27;;;1.10;;
24761;SDS011;12865;51.934;10.330;2022-10-15T16:54:37;1.63;;;1.27;;
24761;SDS011;12865;51.934;10.330;2022-10-15T16:57:23;1.35;;;1.02;;
24761;SDS011;12865;51.934;10.330;2022-10-15T17:00:08;2.65;;;1.27;;
24761;SDS011;12865;51.934;10.330;2022-10-15T17:02:55;1.20;;;1.10;;
24761;SDS011;12865;51.934;10.330;2022-10-15T17:05:40;4.25;;;2.22;;
24761;SDS011;12865;51.934;10.330;2022-10-15T17:08:27;4.65;;;1.35;;
24761;SDS011;12865;51.934;10.330;2022-10-15T17:11:22;0.93;;;0.93;;
24761;SDS011;12865;51.934;10.330;2022-10-15T17:14:11;2.25;;;1.08;;
24761;SDS011;12865;51.934;10.330;2022-10-15T17:16:58;1.60;;;1.50;;
24761;SDS011;12865;51.934;10.330;2022-10-15T17:19:44;1.67;;;1.30;;
24761;SDS011;12865;51.934;10.330;2022-10-15T17:22:30;1.40;;;1.23;;
24761;SDS011;12865;51.934;10.330;2022-10-15T17:25:16;1.15;;;1.10;;
24761;SDS011;12865;51.934;10.330;2022-10-15T17:28:03;1.33;;;1.20;;
24761;SDS011;12865;51.934;10.330;2022-10-15T17:30:49;1.55;;;1.42;;
24761;SDS011;12865;51.934;10.330;2022-10-15T17:33:35;1.38;;;0.95;;
24761;SDS011;12865;51.934;10.330;2022-10-15T17:36:23;2.72;;;1.63;;
24761;SDS011;12865;51.934;10.330;2022-10-15T17:39:11;1.13;;;1.13;;
24761;SDS011;12865;51.934;10.330;2022-10-15T17:41:58;1.20;;;1.20;;
24761;SDS011;12865;51.934;10.330;2022-10-15T17:44:44;1.45;;;1.25;;
24761;SDS011;12865;51.934;10.330;2022-10-15T17:47:29;1.30;;;1.30;;
24761;SDS011;12865;51.934;10.330;2022-10-15T17:50:15;1.70;;;1.00;;
24761;SDS011;12865;51.934;10.330;2022-10-15T17:53:02;2.17;;;1.10;;
24761;SDS011;12865;51.934;10.330;2022-10-15T17:55:49;1.08;;;1.08;;
24761;SDS011;12865;51.934;10.330;2022-10-15T17:58:34;0.90;;;0.90;;
24761;SDS011;12865;51.934;10.330;2022-10-15T18:01:21;1.00;;;1.00;;
24761;SDS011;12865;51.934;10.330;2022-10-15T18:04:09;1.08;;;1.08;;
24761;SDS011;12865;51.934;10.330;2022-10-15T18:06:55;1.58;;;1.40;;
24761;SDS011;12865;51.934;10.330;2022-10-15T18:09:41;1.10;;;1.10;;
24761;SDS011;12865;51.934;10.330;2022-10-15T18:12:27;0.98;;;0.98;;
24761;SDS011;12865;51.934;10.330;2022-10-15T18:15:13;1.25;;;1.17;;
24761;SDS011;12865;51.934;10.330;2022-10-15T18:17:58;2.35;;;1.30;;
24761;SDS011;12865;51.934;10.330;2022-10-15T18:20:44;1.40;;;1.10;;
24761;SDS011;12865;51.934;10.330;2022-10-15T18:23:30;1.23;;;1.17;;
24761;SDS011;12865;51.934;10.330;2022-10-15T18:26:20;1.98;;;1.10;;
24761;SDS011;12865;51.934;10.330;2022-10-15T18:29:07;0.98;;;0.98;;
24761;SDS011;12865;51.934;10.330;2022-10-15T18:31:52;3.03;;;1.10;;
24761;SDS011;12865;51.934;10.330;2022-10-15T18:34:39;1.00;;;1.00;;